Time,TemperatureF,DewpointF,PressureIn,WindDirection,WindDirectionDegrees,WindSpeedMPH,WindSpeedGustMPH,Humidity,HourlyPrecipIn,Conditions,Clouds,dailyrainin,SoftwareType,DateUTC
2013-08-29 00:05:00,70.5,71.0,29.85,SSE,155,0.0,1.0,100,0.00,,,0.00,weatherlink.com 1.10,2013-08-29 04:05:00,
2013-08-29 00:20:00,70.5,71.0,29.85,SSE,155,0.0,1.0,100,0.00,,,0.00,weatherlink.com 1.10,2013-08-29 04:20:00,
2013-08-29 00:35:00,70.3,70.0,29.85,SSE,155,0.0,1.0,100,0.00,,,0.00,weatherlink.com 1.10,2013-08-29 04:35:00,
2013-08-29 00:50:00,70.4,70.0,29.85,SSE,155,0.0,0.0,100,0.00,,,0.00,weatherlink.com 1.10,2013-08-29 04:50:00,
2013-08-29 01:05:00,70.4,70.0,29.85,SSE,155,0.0,0.0,100,0.00,,,0.00,weatherlink.com 1.10,2013-08-29 05:05:00,
2013-08-29 01:20:00,70.4,70.0,29.85,SSE,155,0.0,0.0,100,0.00,,,0.00,weatherlink.com 1.10,2013-08-29 05:20:00,
2013-08-29 01:35:00,70.4,70.0,29.85,SSE,155,0.0,0.0,100,0.00,,,0.00,weatherlink.com 1.10,2013-08-29 05:35:00,
2013-08-29 01:50:00,70.4,70.0,29.86,SSE,155,0.0,0.0,100,0.00,,,0.00,weatherlink.com 1.10,2013-08-29 05:50:00,
2013-08-29 02:05:00,70.4,70.0,29.86,SSE,155,0.0,1.0,100,0.00,,,0.00,weatherlink.com 1.10,2013-08-29 06:05:00,
2013-08-29 02:20:00,70.3,70.0,29.86,SSE,155,0.0,1.0,100,0.00,,,0.00,weatherlink.com 1.10,2013-08-29 06:20:00,
2013-08-29 02:35:00,70.3,70.0,29.86,SSE,155,0.0,0.0,100,0.00,,,0.00,weatherlink.com 1.10,2013-08-29 06:35:00,
2013-08-29 02:50:00,70.2,70.0,29.86,SSE,155,0.0,0.0,100,0.00,,,0.00,weatherlink.com 1.10,2013-08-29 06:50:00,
2013-08-29 03:05:00,70.1,70.0,29.86,SSE,155,0.0,0.0,100,0.00,,,0.00,weatherlink.com 1.10,2013-08-29 07:05:00,
2013-08-29 03:20:00,70.1,70.0,29.87,SSE,155,0.0,0.0,100,0.00,,,0.00,weatherlink.com 1.10,2013-08-29 07:20:00,
2013-08-29 03:35:00,70.0,70.0,29.87,SSE,155,0.0,0.0,100,0.00,,,0.00,weatherlink.com 1.10,2013-08-29 07:35:00,
2013-08-29 03:50:00,70.0,70.0,29.87,SSE,155,0.0,0.0,100,0.00,,,0.00,weatherlink.com 1.10,2013-08-29 07:50:00,
2013-08-29 04:05:00,70.0,70.0,29.87,SSE,155,0.0,0.0,100,0.00,,,0.00,weatherlink.com 1.10,2013-08-29 08:05:00,
2013-08-29 04:20:00,69.9,70.0,29.87,SSE,155,0.0,0.0,100,0.00,,,0.00,weatherlink.com 1.10,2013-08-29 08:20:00,
2013-08-29 04:35:00,69.9,70.0,29.88,SSE,155,0.0,0.0,100,0.00,,,0.00,weatherlink.com 1.10,2013-08-29 08:35:00,
2013-08-29 04:50:00,69.9,70.0,29.89,SSE,155,0.0,0.0,100,0.00,,,0.00,weatherlink.com 1.10,2013-08-29 08:50:00,
2013-08-29 05:05:00,70.0,70.0,29.89,SSE,155,0.0,0.0,100,0.00,,,0.00,weatherlink.com 1.10,2013-08-29 09:05:00,
2013-08-29 05:20:00,69.9,70.0,29.89,SSE,155,0.0,0.0,100,0.00,,,0.00,weatherlink.com 1.10,2013-08-29 09:20:00,
2013-08-29 05:35:00,69.9,70.0,29.90,SSE,155,0.0,0.0,100,0.00,,,0.00,weatherlink.com 1.10,2013-08-29 09:35:00,
2013-08-29 05:50:00,69.9,70.0,29.90,SSE,155,0.0,0.0,100,0.00,,,0.00,weatherlink.com 1.10,2013-08-29 09:50:00,
2013-08-29 06:05:00,69.7,70.0,29.91,SSE,155,0.0,1.0,100,0.00,,,0.00,weatherlink.com 1.10,2013-08-29 10:05:00,
2013-08-29 06:20:00,69.6,70.0,29.91,SSE,155,0.0,0.0,100,0.00,,,0.00,weatherlink.com 1.10,2013-08-29 10:20:00,
2013-08-29 06:22:00,69.6,69.6,29.91,SSE,155,0.0,0.0,100,0.00,,,0.00,Wunderground v.1.15,2013-08-29 10:22:00,
2013-08-29 06:27:00,69.6,69.6,29.91,SSE,155,0.0,0.0,100,0.00,,,0.00,Wunderground v.1.15,2013-08-29 10:27:00,
2013-08-29 06:32:00,69.6,69.6,29.92,SSE,155,0.0,0.0,100,0.00,,,0.00,Wunderground v.1.15,2013-08-29 10:32:00,
2013-08-29 06:37:00,69.6,69.6,29.92,SSE,155,0.0,0.0,100,0.00,,,0.00,Wunderground v.1.15,2013-08-29 10:37:00,
2013-08-29 06:42:00,69.6,69.6,29.92,SSE,155,0.0,0.0,100,0.00,,,0.00,Wunderground v.1.15,2013-08-29 10:42:00,
2013-08-29 06:47:00,69.6,69.6,29.92,SSE,155,0.0,0.0,100,0.00,,,0.00,Wunderground v.1.15,2013-08-29 10:47:00,
2013-08-29 06:52:00,69.6,69.6,29.92,SSE,155,0.0,0.0,100,0.00,,,0.00,Wunderground v.1.15,2013-08-29 10:52:00,
2013-08-29 06:57:00,69.6,69.6,29.93,SSE,155,0.0,0.0,100,0.00,,,0.00,Wunderground v.1.15,2013-08-29 10:57:00,
2013-08-29 07:02:00,69.6,69.6,29.93,SSE,155,0.0,0.0,100,0.00,,,0.00,Wunderground v.1.15,2013-08-29 11:02:00,
2013-08-29 07:07:00,69.5,69.5,29.93,SSE,155,0.0,0.0,100,0.00,,,0.00,Wunderground v.1.15,2013-08-29 11:07:00,
2013-08-29 07:12:00,69.6,69.6,29.93,SSE,155,0.0,0.0,100,0.00,,,0.00,Wunderground v.1.15,2013-08-29 11:12:00,
2013-08-29 07:17:00,69.6,69.6,29.93,SSE,155,0.0,0.0,100,0.00,,,0.00,Wunderground v.1.15,2013-08-29 11:17:00,
2013-08-29 07:22:00,69.6,69.6,29.94,SSE,155,0.0,0.0,100,0.00,,,0.00,Wunderground v.1.15,2013-08-29 11:22:00,
2013-08-29 07:27:00,69.6,69.6,29.94,SSE,155,0.0,0.0,100,0.00,,,0.00,Wunderground v.1.15,2013-08-29 11:27:00,
2013-08-29 07:32:00,69.6,69.6,29.94,SSE,155,0.0,0.0,100,0.00,,,0.00,Wunderground v.1.15,2013-08-29 11:32:00,
2013-08-29 07:37:00,69.7,69.7,29.94,SSE,155,0.0,0.0,100,0.00,,,0.00,Wunderground v.1.15,2013-08-29 11:37:00,
2013-08-29 07:42:00,69.7,69.7,29.94,SSE,155,0.0,0.0,100,0.00,,,0.00,Wunderground v.1.15,2013-08-29 11:42:00,
2013-08-29 07:47:00,69.7,69.7,29.94,SSE,155,0.0,0.0,100,0.00,,,0.00,Wunderground v.1.15,2013-08-29 11:47:00,
2013-08-29 07:52:00,69.8,69.8,29.94,SSE,155,0.0,0.0,100,0.00,,,0.00,Wunderground v.1.15,2013-08-29 11:52:00,
2013-08-29 07:57:00,69.8,69.8,29.94,SSE,155,0.0,0.0,100,0.00,,,0.00,Wunderground v.1.15,2013-08-29 11:57:00,
2013-08-29 08:02:00,69.9,69.9,29.95,SSE,155,0.0,0.0,100,0.00,,,0.00,Wunderground v.1.15,2013-08-29 12:02:00,
2013-08-29 08:07:00,69.9,69.9,29.95,SSE,155,0.0,0.0,100,0.00,,,0.00,Wunderground v.1.15,2013-08-29 12:07:00,
2013-08-29 08:12:00,70.0,70.0,29.95,SSE,155,0.0,0.0,100,0.00,,,0.00,Wunderground v.1.15,2013-08-29 12:12:00,
2013-08-29 08:17:00,70.0,70.0,29.95,SSE,155,0.0,0.0,100,0.00,,,0.00,Wunderground v.1.15,2013-08-29 12:17:00,
2013-08-29 08:22:00,70.0,70.0,29.96,SSE,155,0.0,0.0,100,0.00,,,0.00,Wunderground v.1.15,2013-08-29 12:22:00,
2013-08-29 08:27:00,70.0,70.0,29.96,SSE,155,0.0,0.0,100,0.00,,,0.00,Wunderground v.1.15,2013-08-29 12:27:00,
2013-08-29 08:32:00,70.1,70.1,29.96,SSE,155,0.0,0.0,100,0.00,,,0.00,Wunderground v.1.15,2013-08-29 12:32:00,
2013-08-29 08:37:00,70.1,70.1,29.96,SSE,155,0.0,0.0,100,0.00,,,0.00,Wunderground v.1.15,2013-08-29 12:37:00,
2013-08-29 08:42:00,70.2,70.2,29.96,SSE,155,0.0,0.0,100,0.00,,,0.00,Wunderground v.1.15,2013-08-29 12:42:00,
2013-08-29 08:47:00,70.2,70.2,29.96,SSE,155,0.0,1.0,100,0.00,,,0.00,Wunderground v.1.15,2013-08-29 12:47:00,
2013-08-29 08:52:00,70.4,70.4,29.96,SSE,155,0.0,0.0,100,0.00,,,0.00,Wunderground v.1.15,2013-08-29 12:52:00,
2013-08-29 08:57:00,70.5,70.5,29.97,SSE,155,0.0,0.0,100,0.00,,,0.00,Wunderground v.1.15,2013-08-29 12:57:00,
2013-08-29 09:02:00,70.5,70.5,29.97,SSE,155,1.0,1.0,100,0.00,,,0.00,Wunderground v.1.15,2013-08-29 13:02:00,
2013-08-29 09:07:00,70.5,70.5,29.96,ENE,63,0.0,2.0,100,0.00,,,0.00,Wunderground v.1.15,2013-08-29 13:07:00,
2013-08-29 09:12:00,70.5,70.5,29.96,ENE,63,0.0,0.0,100,0.00,,,0.00,Wunderground v.1.15,2013-08-29 13:12:00,
2013-08-29 09:17:00,70.5,70.5,29.97,ENE,63,0.0,0.0,100,0.00,,,0.00,Wunderground v.1.15,2013-08-29 13:17:00,
2013-08-29 09:22:00,70.3,70.3,29.97,ENE,63,1.0,1.0,100,0.00,,,0.00,Wunderground v.1.15,2013-08-29 13:22:00,
2013-08-29 09:27:00,70.3,70.3,29.97,ENE,63,0.0,1.0,100,0.00,,,0.00,Wunderground v.1.15,2013-08-29 13:27:00,
2013-08-29 09:32:00,70.4,70.4,29.97,ENE,63,0.0,0.0,100,0.00,,,0.00,Wunderground v.1.15,2013-08-29 13:32:00,
2013-08-29 09:37:00,70.5,70.5,29.97,ENE,63,0.0,0.0,100,0.00,,,0.00,Wunderground v.1.15,2013-08-29 13:37:00,
2013-08-29 09:42:00,70.7,70.7,29.97,ENE,63,1.0,1.0,100,0.00,,,0.00,Wunderground v.1.15,2013-08-29 13:42:00,
2013-08-29 09:47:00,70.8,70.8,29.97,ENE,63,0.0,1.0,100,0.00,,,0.00,Wunderground v.1.15,2013-08-29 13:47:00,
2013-08-29 09:52:00,71.1,71.1,29.98,ENE,63,0.0,1.0,100,0.00,,,0.00,Wunderground v.1.15,2013-08-29 13:52:00,
2013-08-29 09:58:00,71.3,71.0,29.98,NE,36,0.0,1.0,99,0.00,,,0.00,Wunderground v.1.15,2013-08-29 13:58:00,
2013-08-29 10:03:00,71.4,70.8,29.97,NE,36,0.0,1.0,98,0.00,,,0.00,Wunderground v.1.15,2013-08-29 14:03:00,
2013-08-29 10:08:00,71.4,70.8,29.98,NE,36,0.0,1.0,98,0.00,,,0.00,Wunderground v.1.15,2013-08-29 14:08:00,
2013-08-29 10:13:00,71.4,70.8,29.98,NE,36,0.0,0.0,98,0.00,,,0.00,Wunderground v.1.15,2013-08-29 14:13:00,
2013-08-29 10:18:00,71.6,70.7,29.98,ENE,74,0.0,2.0,97,0.00,,,0.00,Wunderground v.1.15,2013-08-29 14:18:00,
2013-08-29 10:23:00,71.6,70.7,29.98,ENE,74,0.0,1.0,97,0.00,,,0.00,Wunderground v.1.15,2013-08-29 14:23:00,
2013-08-29 10:28:00,71.6,70.7,29.98,ENE,74,0.0,1.0,97,0.00,,,0.00,Wunderground v.1.15,2013-08-29 14:28:00,
2013-08-29 10:34:00,71.9,70.7,29.98,ENE,78,1.0,2.0,96,0.00,,,0.00,Wunderground v.1.15,2013-08-29 14:34:00,
2013-08-29 10:40:00,71.6,70.7,29.98,ENE,78,0.0,0.0,97,0.00,,,0.00,Wunderground v.1.15,2013-08-29 14:40:00,
2013-08-29 10:45:00,72.2,70.7,29.98,ENE,78,0.0,1.0,95,0.00,,,0.00,Wunderground v.1.15,2013-08-29 14:45:00,
2013-08-29 10:50:00,72.4,71.5,29.99,ENE,78,0.0,0.0,97,0.00,,,0.00,Wunderground v.1.15,2013-08-29 14:50:00,
2013-08-29 10:55:00,72.7,71.5,29.98,ENE,78,0.0,1.0,96,0.00,,,0.00,Wunderground v.1.15,2013-08-29 14:55:00,
2013-08-29 11:00:00,73.0,70.2,29.99,East,87,0.0,0.0,91,0.00,,,0.00,Wunderground v.1.15,2013-08-29 15:00:00,
2013-08-29 11:05:00,73.4,70.0,29.99,East,87,0.0,1.0,89,0.00,,,0.00,Wunderground v.1.15,2013-08-29 15:05:00,
2013-08-29 11:10:00,73.2,70.7,29.99,East,87,0.0,0.0,92,0.00,,,0.00,Wunderground v.1.15,2013-08-29 15:10:00,
2013-08-29 11:15:00,73.1,71.6,29.98,East,87,1.0,1.0,95,0.00,,,0.00,Wunderground v.1.15,2013-08-29 15:15:00,
2013-08-29 11:20:00,72.7,71.2,29.99,East,87,0.0,0.0,95,0.00,,,0.00,Wunderground v.1.15,2013-08-29 15:20:00,
2013-08-29 11:25:00,73.0,71.8,29.99,East,87,0.0,1.0,96,0.00,,,0.00,Wunderground v.1.15,2013-08-29 15:25:00,
2013-08-29 11:30:00,73.2,71.4,29.99,East,87,1.0,1.0,94,0.00,,,0.00,Wunderground v.1.15,2013-08-29 15:30:00,
2013-08-29 11:35:00,73.2,71.1,29.99,East,87,1.0,2.0,93,0.00,,,0.00,Wunderground v.1.15,2013-08-29 15:35:00,
2013-08-29 11:40:00,73.7,71.2,29.99,East,87,1.0,2.0,92,0.00,,,0.00,Wunderground v.1.15,2013-08-29 15:40:00,
2013-08-29 11:45:00,74.3,70.2,29.99,South,171,1.0,2.0,87,0.00,,,0.00,Wunderground v.1.15,2013-08-29 15:45:00,
2013-08-29 11:50:00,75.0,70.2,29.99,ESE,107,1.0,1.0,85,0.00,,,0.00,Wunderground v.1.15,2013-08-29 15:50:00,
2013-08-29 11:55:00,75.2,71.1,29.99,East,79,0.0,1.0,87,0.00,,,0.00,Wunderground v.1.15,2013-08-29 15:55:00,
2013-08-29 12:00:00,75.0,70.2,29.99,ENE,72,0.0,1.0,85,0.00,,,0.00,Wunderground v.1.15,2013-08-29 16:00:00,
2013-08-29 12:05:00,75.9,69.3,29.99,East,93,0.0,1.0,80,0.00,,,0.00,Wunderground v.1.15,2013-08-29 16:05:00,
2013-08-29 12:10:00,76.3,69.3,29.98,ENE,60,1.0,2.0,79,0.00,,,0.00,Wunderground v.1.15,2013-08-29 16:10:00,
2013-08-29 12:15:00,75.7,70.2,29.99,ENE,60,0.0,2.0,83,0.00,,,0.00,Wunderground v.1.15,2013-08-29 16:15:00,
2013-08-29 12:20:00,75.5,70.0,29.99,ENE,60,1.0,1.0,83,0.00,,,0.00,Wunderground v.1.15,2013-08-29 16:20:00,
2013-08-29 12:25:00,75.5,70.7,29.99,ENE,60,0.0,1.0,85,0.00,,,0.00,Wunderground v.1.15,2013-08-29 16:25:00,
2013-08-29 12:30:00,75.3,69.8,29.98,ENE,60,0.0,1.0,83,0.00,,,0.00,Wunderground v.1.15,2013-08-29 16:30:00,
2013-08-29 12:35:00,75.5,70.3,29.98,ENE,60,1.0,2.0,84,0.00,,,0.00,Wunderground v.1.15,2013-08-29 16:35:00,
2013-08-29 12:40:00,76.2,69.9,29.98,ENE,60,1.0,2.0,81,0.00,,,0.00,Wunderground v.1.15,2013-08-29 16:40:00,
2013-08-29 12:45:00,76.9,69.1,29.98,ENE,60,1.0,2.0,77,0.00,,,0.00,Wunderground v.1.15,2013-08-29 16:45:00,
2013-08-29 12:50:00,77.1,70.1,29.98,ENE,60,0.0,1.0,79,0.00,,,0.00,Wunderground v.1.15,2013-08-29 16:50:00,
2013-08-29 12:55:00,76.4,70.5,29.98,ENE,60,1.0,2.0,82,0.00,,,0.00,Wunderground v.1.15,2013-08-29 16:55:00,
2013-08-29 13:01:00,77.2,70.9,29.98,SSE,165,2.0,2.0,81,0.00,,,0.00,Wunderground v.1.15,2013-08-29 17:01:00,
2013-08-29 13:06:00,76.3,71.1,29.98,SSE,165,1.0,2.0,84,0.00,,,0.00,Wunderground v.1.15,2013-08-29 17:06:00,
2013-08-29 13:11:00,75.5,70.3,29.98,SSE,165,0.0,0.0,84,0.00,,,0.00,Wunderground v.1.15,2013-08-29 17:11:00,
2013-08-29 13:16:00,76.2,70.3,29.98,SSE,165,0.0,1.0,82,0.00,,,0.00,Wunderground v.1.15,2013-08-29 17:16:00,
2013-08-29 13:21:00,77.3,69.1,29.98,SSE,165,1.0,1.0,76,0.00,,,0.00,Wunderground v.1.15,2013-08-29 17:21:00,
2013-08-29 13:26:00,77.3,70.6,29.98,ESE,108,0.0,2.0,80,0.00,,,0.00,Wunderground v.1.15,2013-08-29 17:26:00,
2013-08-29 13:31:00,76.7,71.1,29.98,ESE,108,0.0,1.0,83,0.00,,,0.00,Wunderground v.1.15,2013-08-29 17:31:00,
2013-08-29 13:36:00,76.2,70.7,29.98,ESE,108,1.0,1.0,83,0.00,,,0.00,Wunderground v.1.15,2013-08-29 17:36:00,
2013-08-29 13:41:00,77.3,70.6,29.98,ESE,108,0.0,0.0,80,0.00,,,0.00,Wunderground v.1.15,2013-08-29 17:41:00,
2013-08-29 13:46:00,78.5,69.5,29.98,SSW,192,2.0,2.0,74,0.00,,,0.00,Wunderground v.1.15,2013-08-29 17:46:00,
2013-08-29 13:51:00,79.6,69.0,29.98,NE,41,2.0,2.0,70,0.00,,,0.00,Wunderground v.1.15,2013-08-29 17:51:00,
2013-08-29 13:56:00,80.2,69.5,29.98,ENE,73,1.0,2.0,70,0.00,,,0.00,Wunderground v.1.15,2013-08-29 17:56:00,
2013-08-29 14:01:00,80.2,68.7,29.98,South,177,1.0,1.0,68,0.00,,,0.00,Wunderground v.1.15,2013-08-29 18:01:00,
2013-08-29 14:06:00,80.6,69.5,29.98,East,88,2.0,2.0,69,0.00,,,0.00,Wunderground v.1.15,2013-08-29 18:06:00,
2013-08-29 14:11:00,80.4,68.4,29.98,East,88,0.0,2.0,67,0.00,,,0.00,Wunderground v.1.15,2013-08-29 18:11:00,
2013-08-29 14:16:00,80.1,68.2,29.97,South,180,1.0,2.0,67,0.00,,,0.00,Wunderground v.1.15,2013-08-29 18:16:00,
2013-08-29 14:21:00,79.9,70.1,29.97,South,181,1.0,2.0,72,0.00,,,0.00,Wunderground v.1.15,2013-08-29 18:21:00,
2013-08-29 14:26:00,80.8,67.5,29.97,South,186,1.0,3.0,64,0.00,,,0.00,Wunderground v.1.15,2013-08-29 18:26:00,
2013-08-29 14:31:00,80.9,70.2,29.97,SE,142,0.0,1.0,70,0.00,,,0.00,Wunderground v.1.15,2013-08-29 18:31:00,
2013-08-29 14:36:00,81.4,68.1,29.97,South,175,0.0,2.0,64,0.00,,,0.00,Wunderground v.1.15,2013-08-29 18:36:00,
2013-08-29 14:42:00,82.8,69.8,29.97,ENE,78,1.0,1.0,65,0.00,,,0.00,Wunderground v.1.15,2013-08-29 18:42:00,
2013-08-29 14:49:00,83.0,70.0,29.96,North,360,1.0,2.0,65,0.00,,,0.00,weatherlink.com 1.10,2013-08-29 18:49:00,
2013-08-29 14:54:00,83.2,67.4,29.96,East,88,0.0,3.0,59,0.00,,,0.00,Wunderground v.1.15,2013-08-29 18:54:00,
2013-08-29 14:59:00,82.8,68.4,29.97,ENE,78,1.0,3.0,62,0.00,,,0.00,Wunderground v.1.15,2013-08-29 18:59:00,
2013-08-29 15:04:00,81.2,70.9,29.97,ENE,78,1.0,1.0,71,0.00,,,0.00,Wunderground v.1.15,2013-08-29 19:04:00,
2013-08-29 15:10:00,81.3,71.0,29.96,ENE,78,1.0,1.0,71,0.00,,,0.00,Wunderground v.1.15,2013-08-29 19:10:00,
2013-08-29 15:15:00,83.3,71.2,29.96,ENE,67,1.0,1.0,67,0.00,,,0.00,Wunderground v.1.15,2013-08-29 19:15:00,
2013-08-29 15:20:00,82.3,68.9,29.96,ENE,67,0.0,1.0,64,0.00,,,0.00,Wunderground v.1.15,2013-08-29 19:20:00,
2013-08-29 15:25:00,83.3,69.8,29.96,ENE,67,0.0,1.0,64,0.00,,,0.00,Wunderground v.1.15,2013-08-29 19:25:00,
2013-08-29 15:30:00,81.9,70.3,29.96,ENE,67,1.0,1.0,68,0.00,,,0.00,Wunderground v.1.15,2013-08-29 19:30:00,
2013-08-29 15:35:00,81.0,71.5,29.96,ENE,67,1.0,2.0,73,0.00,,,0.00,Wunderground v.1.15,2013-08-29 19:35:00,
2013-08-29 15:40:00,81.8,71.1,29.96,ENE,67,0.0,1.0,70,0.00,,,0.00,Wunderground v.1.15,2013-08-29 19:40:00,
2013-08-29 15:45:00,82.9,70.4,29.96,ESE,120,1.0,3.0,66,0.00,,,0.00,Wunderground v.1.15,2013-08-29 19:45:00,
2013-08-29 15:50:00,81.8,70.6,29.96,ESE,120,0.0,1.0,69,0.00,,,0.00,Wunderground v.1.15,2013-08-29 19:50:00,
2013-08-29 15:55:00,81.4,71.9,29.96,ESE,120,1.0,1.0,73,0.00,,,0.00,Wunderground v.1.15,2013-08-29 19:55:00,
2013-08-29 16:00:00,81.8,71.9,29.96,North,5,1.0,2.0,72,0.00,,,0.00,Wunderground v.1.15,2013-08-29 20:00:00,
2013-08-29 16:05:00,80.6,71.1,29.96,North,5,1.0,2.0,73,0.00,,,0.00,Wunderground v.1.15,2013-08-29 20:05:00,
2013-08-29 16:10:00,79.5,70.9,29.96,North,5,0.0,0.0,75,0.00,,,0.00,Wunderground v.1.15,2013-08-29 20:10:00,
2013-08-29 16:15:00,78.6,71.5,29.95,North,5,0.0,1.0,79,0.00,,,0.00,Wunderground v.1.15,2013-08-29 20:15:00,
2013-08-29 16:20:00,79.5,72.8,29.96,North,5,0.0,1.0,80,0.00,,,0.00,Wunderground v.1.15,2013-08-29 20:20:00,
2013-08-29 16:25:00,79.8,71.2,29.96,WSW,243,1.0,2.0,75,0.00,,,0.00,Wunderground v.1.15,2013-08-29 20:25:00,
2013-08-29 16:30:00,80.2,71.2,29.96,WSW,243,1.0,1.0,74,0.00,,,0.00,Wunderground v.1.15,2013-08-29 20:30:00,
2013-08-29 16:36:00,80.0,72.1,29.96,SW,227,0.0,3.0,77,0.00,,,0.00,Wunderground v.1.15,2013-08-29 20:36:00,
2013-08-29 16:41:00,79.3,71.5,29.96,WSW,251,1.0,1.0,77,0.00,,,0.00,Wunderground v.1.15,2013-08-29 20:41:00,
2013-08-29 16:45:00,78.8,71.0,29.96,WSW,251,0.0,1.0,77,0.00,,,0.00,Wunderground v.1.15,2013-08-29 20:45:00,
2013-08-29 16:50:00,79.1,71.6,29.96,WSW,251,1.0,1.0,78,0.00,,,0.00,Wunderground v.1.15,2013-08-29 20:50:00,
2013-08-29 16:55:00,79.7,70.7,29.96,WSW,251,1.0,1.0,74,0.00,,,0.00,Wunderground v.1.15,2013-08-29 20:55:00,
2013-08-29 17:01:00,79.0,71.6,29.96,SW,235,0.0,1.0,78,0.00,,,0.00,Wunderground v.1.15,2013-08-29 21:01:00,
2013-08-29 17:06:00,79.3,71.8,29.96,SW,236,0.0,1.0,78,0.00,,,0.00,Wunderground v.1.15,2013-08-29 21:06:00,
2013-08-29 17:11:00,79.3,71.8,29.96,SW,236,0.0,1.0,78,0.00,,,0.00,Wunderground v.1.15,2013-08-29 21:11:00,
2013-08-29 17:16:00,78.8,70.2,29.96,SW,235,1.0,1.0,75,0.00,,,0.00,Wunderground v.1.15,2013-08-29 21:16:00,
2013-08-29 17:21:00,78.4,72.1,29.97,SW,235,0.0,0.0,81,0.00,,,0.00,Wunderground v.1.15,2013-08-29 21:21:00,
2013-08-29 17:26:00,78.0,71.0,29.96,SW,235,0.0,2.0,79,0.00,,,0.00,Wunderground v.1.15,2013-08-29 21:26:00,
2013-08-29 17:31:00,78.3,71.6,29.96,SW,235,0.0,0.0,80,0.00,,,0.00,Wunderground v.1.15,2013-08-29 21:31:00,
2013-08-29 17:36:00,78.3,71.6,29.96,SW,235,0.0,1.0,80,0.00,,,0.00,Wunderground v.1.15,2013-08-29 21:36:00,
2013-08-29 17:41:00,78.1,71.4,29.96,SW,235,0.0,1.0,80,0.00,,,0.00,Wunderground v.1.15,2013-08-29 21:41:00,
2013-08-29 17:46:00,77.9,71.2,29.96,SW,235,0.0,1.0,80,0.00,,,0.00,Wunderground v.1.15,2013-08-29 21:46:00,
2013-08-29 17:51:00,77.5,71.6,29.96,SW,235,0.0,0.0,82,0.00,,,0.00,Wunderground v.1.15,2013-08-29 21:51:00,
2013-08-29 17:56:00,77.1,71.2,29.96,SW,235,0.0,1.0,82,0.00,,,0.00,Wunderground v.1.15,2013-08-29 21:56:00,
2013-08-29 18:01:00,76.7,71.1,29.96,SW,235,0.0,0.0,83,0.00,,,0.00,Wunderground v.1.15,2013-08-29 22:01:00,
2013-08-29 18:06:00,76.5,70.9,29.96,SW,235,0.0,0.0,83,0.00,,,0.00,Wunderground v.1.15,2013-08-29 22:06:00,
2013-08-29 18:11:00,76.1,70.6,29.96,WSW,238,1.0,2.0,83,0.00,,,0.00,Wunderground v.1.15,2013-08-29 22:11:00,
2013-08-29 18:16:00,76.0,70.8,29.96,WSW,250,0.0,2.0,84,0.00,,,0.00,Wunderground v.1.15,2013-08-29 22:16:00,
2013-08-29 18:21:00,76.0,71.2,29.96,WSW,250,0.0,1.0,85,0.00,,,0.00,Wunderground v.1.15,2013-08-29 22:21:00,
2013-08-29 18:26:00,75.9,71.4,29.97,WSW,250,1.0,1.0,86,0.00,,,0.00,Wunderground v.1.15,2013-08-29 22:26:00,
2013-08-29 18:31:00,75.7,71.2,29.97,WSW,250,0.0,0.0,86,0.00,,,0.00,Wunderground v.1.15,2013-08-29 22:31:00,
2013-08-29 18:36:00,75.3,70.8,29.97,WSW,250,0.0,1.0,86,0.00,,,0.00,Wunderground v.1.15,2013-08-29 22:36:00,
2013-08-29 18:47:00,74.7,71.0,29.97,WSW,250,0.0,1.0,87,0.00,,,0.00,weatherlink.com 1.10,2013-08-29 22:47:00,
2013-08-29 18:52:00,74.5,70.0,29.96,WSW,250,0.0,1.0,86,0.00,,,0.00,Wunderground v.1.15,2013-08-29 22:52:00,
2013-08-29 18:57:00,74.1,70.0,29.97,WSW,250,1.0,1.0,87,0.00,,,0.00,Wunderground v.1.15,2013-08-29 22:57:00,
2013-08-29 19:02:00,73.7,69.9,29.97,WSW,250,0.0,1.0,88,0.00,,,0.00,Wunderground v.1.15,2013-08-29 23:02:00,
2013-08-29 19:07:00,73.5,69.7,29.97,WSW,250,0.0,1.0,88,0.00,,,0.00,Wunderground v.1.15,2013-08-29 23:07:00,
2013-08-29 19:12:00,73.2,69.8,29.97,WSW,250,0.0,1.0,89,0.00,,,0.00,Wunderground v.1.15,2013-08-29 23:12:00,
2013-08-29 19:17:00,73.0,69.6,29.97,WSW,250,0.0,1.0,89,0.00,,,0.00,Wunderground v.1.15,2013-08-29 23:17:00,
2013-08-29 19:22:00,72.6,69.5,29.97,WSW,250,0.0,0.0,90,0.00,,,0.00,Wunderground v.1.15,2013-08-29 23:22:00,
2013-08-29 19:27:00,72.3,69.2,29.97,WSW,250,0.0,0.0,90,0.00,,,0.00,Wunderground v.1.15,2013-08-29 23:27:00,
2013-08-29 19:32:00,72.1,69.3,29.97,WSW,250,0.0,1.0,91,0.00,,,0.00,Wunderground v.1.15,2013-08-29 23:32:00,
2013-08-29 19:37:00,71.9,69.4,29.97,WSW,250,0.0,1.0,92,0.00,,,0.00,Wunderground v.1.15,2013-08-29 23:37:00,
2013-08-29 19:42:00,71.6,69.5,29.97,WSW,250,0.0,0.0,93,0.00,,,0.00,Wunderground v.1.15,2013-08-29 23:42:00,
2013-08-29 19:47:00,71.4,69.3,29.97,WSW,250,0.0,1.0,93,0.00,,,0.00,Wunderground v.1.15,2013-08-29 23:47:00,
2013-08-29 19:52:00,71.2,69.1,29.97,WSW,250,0.0,2.0,93,0.00,,,0.00,Wunderground v.1.15,2013-08-29 23:52:00,
2013-08-29 19:57:00,71.1,69.3,29.97,WSW,250,0.0,2.0,94,0.00,,,0.00,Wunderground v.1.15,2013-08-29 23:57:00,
2013-08-29 20:02:00,70.9,69.1,29.97,WSW,250,0.0,0.0,94,0.00,,,0.00,Wunderground v.1.15,2013-08-30 00:02:00,
2013-08-29 20:07:00,70.5,68.7,29.97,WSW,250,0.0,1.0,94,0.00,,,0.00,Wunderground v.1.15,2013-08-30 00:07:00,
2013-08-29 20:12:00,70.4,68.9,29.97,WSW,250,0.0,1.0,95,0.00,,,0.00,Wunderground v.1.15,2013-08-30 00:12:00,
2013-08-29 20:17:00,70.1,68.6,29.97,WSW,250,0.0,1.0,95,0.00,,,0.00,Wunderground v.1.15,2013-08-30 00:17:00,
2013-08-29 20:22:00,70.0,68.5,29.98,WSW,250,0.0,0.0,95,0.00,,,0.00,Wunderground v.1.15,2013-08-30 00:22:00,
2013-08-29 20:27:00,70.0,68.5,29.98,WSW,250,0.0,0.0,95,0.00,,,0.00,Wunderground v.1.15,2013-08-30 00:27:00,
2013-08-29 20:32:00,69.9,68.4,29.98,WSW,250,0.0,0.0,95,0.00,,,0.00,Wunderground v.1.15,2013-08-30 00:32:00,
2013-08-29 20:37:00,69.6,68.1,29.98,WSW,250,0.0,0.0,95,0.00,,,0.00,Wunderground v.1.15,2013-08-30 00:37:00,
2013-08-29 20:43:00,69.4,68.2,29.98,WSW,250,0.0,0.0,96,0.00,,,0.00,Wunderground v.1.15,2013-08-30 00:43:00,
2013-08-29 20:48:00,69.3,68.1,29.98,WSW,250,0.0,0.0,96,0.00,,,0.00,Wunderground v.1.15,2013-08-30 00:48:00,
2013-08-29 20:53:00,69.1,67.9,29.98,WSW,250,0.0,0.0,96,0.00,,,0.00,Wunderground v.1.15,2013-08-30 00:53:00,
2013-08-29 20:58:00,69.0,68.1,29.99,WSW,250,0.0,0.0,97,0.00,,,0.00,Wunderground v.1.15,2013-08-30 00:58:00,
2013-08-29 21:02:00,68.8,67.9,29.99,WSW,250,0.0,0.0,97,0.00,,,0.00,Wunderground v.1.15,2013-08-30 01:02:00,
2013-08-29 21:07:00,68.6,67.7,29.99,WSW,250,0.0,0.0,97,0.00,,,0.00,Wunderground v.1.15,2013-08-30 01:07:00,
2013-08-29 21:13:00,68.5,67.6,29.99,WSW,250,0.0,0.0,97,0.00,,,0.00,Wunderground v.1.15,2013-08-30 01:13:00,
2013-08-29 21:18:00,68.4,67.5,29.99,WSW,250,0.0,1.0,97,0.00,,,0.00,Wunderground v.1.15,2013-08-30 01:18:00,
2013-08-29 21:24:00,68.3,67.4,30.00,WSW,250,0.0,0.0,97,0.00,,,0.00,Wunderground v.1.15,2013-08-30 01:24:00,
2013-08-29 21:29:00,68.2,67.3,30.00,WSW,250,0.0,0.0,97,0.00,,,0.00,Wunderground v.1.15,2013-08-30 01:29:00,
2013-08-29 21:35:00,68.0,67.1,30.00,WSW,250,0.0,0.0,97,0.00,,,0.00,Wunderground v.1.15,2013-08-30 01:35:00,
2013-08-29 21:40:00,67.9,67.0,30.00,WSW,250,0.0,0.0,97,0.00,,,0.00,Wunderground v.1.15,2013-08-30 01:40:00,
2013-08-29 21:45:00,67.8,66.9,30.00,WSW,250,0.0,0.0,97,0.00,,,0.00,Wunderground v.1.15,2013-08-30 01:45:00,
2013-08-29 21:50:00,67.6,66.7,30.00,WSW,250,0.0,0.0,97,0.00,,,0.00,Wunderground v.1.15,2013-08-30 01:50:00,
2013-08-29 21:55:00,67.5,66.6,30.00,WSW,250,0.0,0.0,97,0.00,,,0.00,Wunderground v.1.15,2013-08-30 01:55:00,
2013-08-29 22:01:00,67.3,66.4,30.00,WSW,250,0.0,0.0,97,0.00,,,0.00,Wunderground v.1.15,2013-08-30 02:01:00,
2013-08-29 22:06:00,67.2,66.3,30.00,WSW,250,0.0,0.0,97,0.00,,,0.00,Wunderground v.1.15,2013-08-30 02:06:00,
2013-08-29 22:11:00,67.2,66.6,30.00,WSW,250,0.0,0.0,98,0.00,,,0.00,Wunderground v.1.15,2013-08-30 02:11:00,
2013-08-29 22:16:00,67.3,66.7,30.00,WSW,250,0.0,0.0,98,0.00,,,0.00,Wunderground v.1.15,2013-08-30 02:16:00,
2013-08-29 22:21:00,67.2,66.3,30.00,WSW,250,0.0,0.0,97,0.00,,,0.00,Wunderground v.1.15,2013-08-30 02:21:00,
2013-08-29 22:26:00,67.0,66.4,30.00,WSW,250,0.0,0.0,98,0.00,,,0.00,Wunderground v.1.15,2013-08-30 02:26:00,
2013-08-29 22:31:00,66.8,65.9,30.00,WSW,250,0.0,0.0,97,0.00,,,0.00,Wunderground v.1.15,2013-08-30 02:31:00,
2013-08-29 22:36:00,66.8,66.2,30.00,WSW,250,0.0,0.0,98,0.00,,,0.00,Wunderground v.1.15,2013-08-30 02:36:00,
2013-08-29 22:41:00,66.6,66.0,30.00,WSW,250,0.0,0.0,98,0.00,,,0.00,Wunderground v.1.15,2013-08-30 02:41:00,
2013-08-29 22:46:00,66.8,66.2,30.00,WSW,250,0.0,1.0,98,0.00,,,0.00,Wunderground v.1.15,2013-08-30 02:46:00,
2013-08-29 22:51:00,66.8,66.2,30.00,WSW,250,0.0,0.0,98,0.00,,,0.00,Wunderground v.1.15,2013-08-30 02:51:00,
2013-08-29 22:56:00,66.8,66.2,29.99,WSW,250,0.0,1.0,98,0.00,,,0.00,Wunderground v.1.15,2013-08-30 02:56:00,
2013-08-29 23:04:00,66.7,66.0,30.00,WSW,250,0.0,1.0,98,0.00,,,0.00,weatherlink.com 1.10,2013-08-30 03:04:00,
2013-08-29 23:16:00,66.6,66.0,30.00,WSW,250,0.0,0.0,98,0.00,,,0.00,weatherlink.com 1.10,2013-08-30 03:16:00,
2013-08-29 23:31:00,65.8,65.0,30.00,WSW,250,0.0,0.0,98,0.00,,,0.00,weatherlink.com 1.10,2013-08-30 03:31:00,
2013-08-29 23:46:00,65.8,65.0,30.00,WSW,250,0.0,0.0,98,0.00,,,0.00,weatherlink.com 1.10,2013-08-30 03:46:00,